Time;durP1;ratioP1;P1;durP2;ratioP2;P2;SDS_P1;SDS_P2;PMS_P1;PMS_P2;Temp;Humidity;BMP_temperature;BMP_pressure;BME280_temperature;BME280_humidity;BME280_pressure;Samples;Min_cycle;Max_cycle;Signal;HPM_P1;HPM_P2
2022/09/24 00:01:34;;;;;;;;;;;;;;;12.47;100.00;101241.50;5006482;28;19948;-42
2022/09/24 00:04:02;;;;;;;;;;;;;;;12.46;100.00;101243.34;5011553;28;20004;-40
2022/09/24 00:06:28;;;;;;;;;;;;;;;12.46;100.00;101239.84;5016908;28;19913;-41
2022/09/24 00:08:54;;;;;;;;;;;;;;;12.43;100.00;101234.81;5003771;28;20094;-39
2022/09/24 00:11:20;;;;;;;;;;;;;;;12.40;100.00;101244.00;5005076;28;20007;-40
2022/09/24 00:13:46;;;;;;;;;;;;;;;12.39;100.00;101242.34;5007160;28;20012;-42
2022/09/24 00:16:12;;;;;;;;;;;;;;;12.37;100.00;101232.78;5014130;28;19917;-40
2022/09/24 00:18:38;;;;;;;;;;;;;;;12.35;100.00;101235.63;5019916;28;19939;-42
2022/09/24 00:21:17;;;;;;;;;;;;;;;12.34;100.00;101231.28;5010191;28;19939;-41
2022/09/24 00:23:42;;;;;;;;;;;;;;;12.32;100.00;101234.13;5009310;28;19914;-42
2022/09/24 00:28:55;;;;;;;;;;;;;;;12.29;100.00;101226.41;5019909;28;20194;-39
2022/09/24 00:31:20;;;;;;;;;;;;;;;12.27;100.00;101230.22;5006308;28;20003;-40
2022/09/24 00:33:45;;;;;;;;;;;;;;;12.27;100.00;101222.19;5007547;28;19956;-41
2022/09/24 00:36:10;;;;;;;;;;;;;;;12.26;100.00;101220.53;5011064;28;20325;-40
2022/09/24 00:38:36;;;;;;;;;;;;;;;12.26;100.00;101224.03;5014283;28;19924;-41
2022/09/24 00:41:01;;;;;;;;;;;;;;;12.26;100.00;101217.84;5013993;28;19987;-41
2022/09/24 00:43:28;;;;;;;;;;;;;;;12.27;100.00;101222.19;5018824;28;20324;-40
2022/09/24 00:45:56;;;;;;;;;;;;;;;12.26;100.00;101221.38;5007368;28;19941;-41
2022/09/24 00:48:21;;;;;;;;;;;;;;;12.27;100.00;101214.16;5006719;28;19971;-42
2022/09/24 00:50:47;;;;;;;;;;;;;;;12.28;100.00;101211.31;5019768;28;20320;-40
2022/09/24 00:53:16;;;;;;;;;;;;;;;12.30;100.00;101206.66;5016151;28;19972;-39
2022/09/24 00:55:44;;;;;;;;;;;;;;;12.34;100.00;101201.81;5014008;28;19940;-42
2022/09/24 00:58:09;;;;;;;;;;;;;;;12.39;100.00;101206.66;5003720;28;20482;-40
2022/09/24 01:00:36;;;;;;;;;;;;;;;12.40;100.00;101201.13;5017885;28;20016;-40
2022/09/24 01:03:04;;;;;;;;;;;;;;;12.40;100.00;101201.13;5020729;28;19921;-41
2022/09/24 01:05:29;;;;;;;;;;;;;;;12.39;100.00;101202.16;5020511;28;19913;-41
2022/09/24 01:07:55;;;;;;;;;;;;;;;12.39;100.00;101204.84;5017013;28;19920;-42
2022/09/24 01:13:27;;;;;;;;;;;;;;;12.38;100.00;101191.63;5007515;28;19925;-41
2022/09/24 01:16:00;;;;;;;;;;;;;;;12.37;100.00;101197.97;5007529;28;19918;-40
2022/09/24 01:18:33;;;;;;;;;;;;;;;12.37;100.00;101190.75;5014742;28;19928;-38
2022/09/24 01:21:24;;;;;;;;;;;;;;;12.35;100.00;101181.22;5017870;28;19944;-41
2022/09/24 01:23:49;;;;;;;;;;;;;;;12.32;100.00;101185.91;5014588;28;19993;-41
2022/09/24 01:26:18;;;;;;;;;;;;;;;12.32;100.00;101177.00;5003428;28;20392;-41
2022/09/24 01:29:04;;;;;;;;;;;;;;;12.29;100.00;101174.69;5008033;28;20363;-41
2022/09/24 01:31:37;;;;;;;;;;;;;;;12.30;100.00;101171.84;5012395;28;19951;-40
2022/09/24 01:34:04;;;;;;;;;;;;;;;12.30;100.00;101168.31;5020542;28;19913;-40
2022/09/24 01:36:31;;;;;;;;;;;;;;;12.29;100.00;101166.66;5015573;28;19917;-40
2022/09/24 01:38:57;;;;;;;;;;;;;;;12.29;100.00;101172.00;5010951;28;19917;-41
2022/09/24 01:41:23;;;;;;;;;;;;;;;12.28;100.00;101167.66;5009868;28;20331;-42
2022/09/24 01:43:48;;;;;;;;;;;;;;;12.27;100.00;101165.97;5015787;28;19921;-39
2022/09/24 01:46:15;;;;;;;;;;;;;;;12.29;100.00;101163.97;5011466;28;19913;-40
2022/09/24 01:48:41;;;;;;;;;;;;;;;12.31;100.00;101159.28;5005661;28;19952;-40
2022/09/24 01:51:13;;;;;;;;;;;;;;;12.31;100.00;101157.44;5018300;28;20351;-40
2022/09/24 01:53:45;;;;;;;;;;;;;;;12.33;100.00;101162.63;5011220;28;19940;-42
2022/09/24 01:56:15;;;;;;;;;;;;;;;12.35;100.00;101159.78;5016372;28;19991;-42
2022/09/24 01:59:05;;;;;;;;;;;;;;;12.36;100.00;101156.13;5007969;28;20016;-42
2022/09/24 02:01:43;;;;;;;;;;;;;;;12.37;100.00;101155.09;5006671;28;20321;-41
2022/09/24 02:04:12;;;;;;;;;;;;;;;12.38;100.00;101154.09;5011410;28;19932;-41
2022/09/24 02:06:39;;;;;;;;;;;;;;;12.39;100.00;101161.13;5015739;28;19920;-41
2022/09/24 02:09:05;;;;;;;;;;;;;;;12.40;100.00;101152.09;5018598;28;19939;-41
2022/09/24 02:11:34;;;;;;;;;;;;;;;12.39;100.00;101150.41;5003115;28;20304;-42
2022/09/24 02:14:08;;;;;;;;;;;;;;;12.38;100.00;101141.53;5006634;28;19924;-41
2022/09/24 02:16:36;;;;;;;;;;;;;;;12.38;100.00;101149.59;5014029;28;20368;-40
2022/09/24 02:19:04;;;;;;;;;;;;;;;12.39;100.00;101145.91;5012361;28;19986;-42
2022/09/24 02:21:30;;;;;;;;;;;;;;;12.38;100.00;101146.91;5016836;28;20481;-41
2022/09/24 02:24:02;;;;;;;;;;;;;;;12.37;100.00;101142.53;5003691;28;20281;-42
2022/09/24 02:26:27;;;;;;;;;;;;;;;12.36;100.00;101142.72;5008488;28;20038;-41
2022/09/24 02:28:53;;;;;;;;;;;;;;;12.36;100.00;101140.06;5014637;28;20035;-41
2022/09/24 02:31:23;;;;;;;;;;;;;;;12.35;100.00;101138.38;5015949;28;20198;-41
2022/09/24 02:36:33;;;;;;;;;;;;;;;12.31;100.00;101133.34;5007305;28;20035;-40
2022/09/24 02:38:59;;;;;;;;;;;;;;;12.29;100.00;101131.84;5012088;28;19988;-41
2022/09/24 02:41:24;;;;;;;;;;;;;;;12.29;100.00;101129.16;5011705;28;19972;-41
2022/09/24 02:43:50;;;;;;;;;;;;;;;12.30;100.00;101130.81;5014142;28;19913;-42
2022/09/24 02:46:15;;;;;;;;;;;;;;;12.27;100.00;101128.47;5002689;28;20367;-41
2022/09/24 02:48:41;;;;;;;;;;;;;;;12.26;100.00;101124.13;5009763;28;20020;-42
2022/09/24 02:51:06;;;;;;;;;;;;;;;12.24;100.00;101120.78;5016675;28;19967;-42
2022/09/24 02:53:31;;;;;;;;;;;;;;;12.22;100.00;101118.28;5016240;28;20333;-41
2022/09/24 02:55:59;;;;;;;;;;;;;;;12.22;100.00;101118.28;5010660;28;20010;-42
2022/09/24 02:58:25;;;;;;;;;;;;;;;12.22;100.00;101115.59;5003437;28;19914;-41
2022/09/24 03:00:50;;;;;;;;;;;;;;;12.22;100.00;101118.28;5011417;28;19913;-40
2022/09/24 03:03:15;;;;;;;;;;;;;;;12.23;100.00;101119.09;5013215;28;19921;-41
2022/09/24 03:05:40;;;;;;;;;;;;;;;12.24;100.00;101118.94;5013397;28;20281;-40
2022/09/24 03:08:06;;;;;;;;;;;;;;;12.24;100.00;101118.94;5006043;28;19913;-40
2022/09/24 03:10:31;;;;;;;;;;;;;;;12.26;100.00;101111.56;5007645;28;20276;-39
2022/09/24 03:12:57;;;;;;;;;;;;;;;12.28;100.00;101112.22;5003903;28;19928;-40
2022/09/24 03:15:22;;;;;;;;;;;;;;;12.28;100.00;101100.69;5009386;28;19958;-43
2022/09/24 03:17:47;;;;;;;;;;;;;;;12.28;100.00;101098.00;5011987;28;20015;-42
2022/09/24 03:20:12;;;;;;;;;;;;;;;12.29;100.00;101105.88;5017961;28;19913;-40
2022/09/24 03:22:38;;;;;;;;;;;;;;;12.29;100.00;101105.06;5007099;28;20581;-40
2022/09/24 03:25:03;;;;;;;;;;;;;;;12.28;100.00;101109.56;5008312;28;19913;-41
2022/09/24 03:27:28;;;;;;;;;;;;;;;12.28;100.00;101104.19;5007519;28;20006;-41
2022/09/24 03:32:38;;;;;;;;;;;;;;;12.26;100.00;101098.19;5006688;28;19929;-41
2022/09/24 03:35:04;;;;;;;;;;;;;;;12.26;100.00;101102.72;5005940;28;19913;-42
2022/09/24 03:37:29;;;;;;;;;;;;;;;12.27;100.00;101099.00;5011115;28;19952;-41
2022/09/24 03:39:54;;;;;;;;;;;;;;;12.26;100.00;101097.34;5009470;28;19982;-41
2022/09/24 03:42:20;;;;;;;;;;;;;;;12.25;100.00;101101.88;5015037;28;19913;-41
2022/09/24 03:44:45;;;;;;;;;;;;;;;12.22;100.00;101099.53;5006215;28;19992;-41
2022/09/24 03:47:11;;;;;;;;;;;;;;;12.22;100.00;101090.63;5004022;28;19998;-40
2022/09/24 03:49:36;;;;;;;;;;;;;;;12.22;100.00;101090.63;5008924;28;19921;-42
2022/09/24 03:52:01;;;;;;;;;;;;;;;12.21;100.00;101095.16;5015265;28;20001;-41
2022/09/24 03:54:26;;;;;;;;;;;;;;;12.20;100.00;101084.63;5020244;28;20427;-42
2022/09/24 03:56:51;;;;;;;;;;;;;;;12.21;100.00;101088.97;5008302;28;19925;-41
2022/09/24 03:59:17;;;;;;;;;;;;;;;12.21;100.00;101083.63;5013897;28;19913;-40
2022/09/24 04:01:42;;;;;;;;;;;;;;;12.20;100.00;101082.75;5010156;28;19914;-40
2022/09/24 04:04:07;;;;;;;;;;;;;;;12.20;100.00;101084.63;5031271;28;19933;-42
2022/09/24 04:06:32;;;;;;;;;;;;;;;12.20;100.00;101079.25;5019778;28;19960;-41
2022/09/24 04:08:59;;;;;;;;;;;;;;;12.19;100.00;101073.06;5021219;28;19920;-41
2022/09/24 04:11:24;;;;;;;;;;;;;;;12.19;100.00;101072.25;5019238;28;19921;-41
2022/09/24 04:13:50;;;;;;;;;;;;;;;12.20;100.00;101080.09;5021691;28;19924;-40
2022/09/24 04:16:15;;;;;;;;;;;;;;;12.18;100.00;101081.28;5021512;28;19928;-42
2022/09/24 04:18:40;;;;;;;;;;;;;;;12.20;100.00;101076.59;5021258;28;19923;-43
2022/09/24 04:21:05;;;;;;;;;;;;;;;12.21;100.00;101075.59;5020786;28;19956;-41
2022/09/24 04:23:31;;;;;;;;;;;;;;;12.20;100.00;101077.41;5020991;28;20367;-42
2022/09/24 04:25:57;;;;;;;;;;;;;;;12.21;100.00;101079.09;5019621;28;19923;-40
2022/09/24 04:28:24;;;;;;;;;;;;;;;12.20;100.00;101077.41;5020915;28;20289;-42
2022/09/24 04:30:49;;;;;;;;;;;;;;;12.19;100.00;101067.72;5020944;28;19993;-40
2022/09/24 04:33:14;;;;;;;;;;;;;;;12.18;100.00;101071.38;5021247;28;19921;-40
2022/09/24 04:35:39;;;;;;;;;;;;;;;12.17;100.00;101072.41;5020845;28;19913;-41
2022/09/24 04:38:04;;;;;;;;;;;;;;;12.18;100.00;101071.38;5022675;28;19923;-42
2022/09/24 04:40:30;;;;;;;;;;;;;;;12.15;100.00;101066.34;5021080;28;19944;-41
2022/09/24 04:42:56;;;;;;;;;;;;;;;12.13;100.00;101063.88;5016774;28;19970;-40
2022/09/24 04:45:23;;;;;;;;;;;;;;;12.09;100.00;101064.38;5015351;28;19941;-41
2022/09/24 04:47:56;;;;;;;;;;;;;;;12.13;100.00;101063.88;5017279;28;19924;-39
2022/09/24 04:50:21;;;;;;;;;;;;;;;12.10;100.00;101063.34;5016737;28;20339;-39
2022/09/24 04:52:47;;;;;;;;;;;;;;;12.10;100.00;101058.84;5016847;28;20024;-39
2022/09/24 04:55:12;;;;;;;;;;;;;;;12.12;100.00;101061.38;5015604;28;19924;-43
2022/09/24 04:57:37;;;;;;;;;;;;;;;12.10;100.00;101066.88;5015179;28;19925;-41
2022/09/24 05:00:04;;;;;;;;;;;;;;;12.11;100.00;101055.16;5020217;28;20000;-40
2022/09/24 05:02:29;;;;;;;;;;;;;;;12.11;100.00;101068.53;5021236;28;20001;-41
2022/09/24 05:04:54;;;;;;;;;;;;;;;12.13;100.00;101061.19;5016664;28;19959;-40
2022/09/24 05:07:19;;;;;;;;;;;;;;;12.15;100.00;101058.34;5019968;28;19985;-40
2022/09/24 05:09:44;;;;;;;;;;;;;;;12.16;100.00;101061.88;5019797;28;20013;-41
2022/09/24 05:12:10;;;;;;;;;;;;;;;12.17;100.00;101069.72;5016400;28;20555;-40
2022/09/24 05:14:35;;;;;;;;;;;;;;;12.16;100.00;101069.91;5015448;28;19921;-40
2022/09/24 05:17:01;;;;;;;;;;;;;;;12.15;100.00;101065.53;5011035;28;20355;-41
2022/09/24 05:19:26;;;;;;;;;;;;;;;12.10;100.00;101056.16;5009304;28;19929;-39
2022/09/24 05:21:51;;;;;;;;;;;;;;;12.14;100.00;101067.38;5001437;28;19924;-39
2022/09/24 05:24:16;;;;;;;;;;;;;;;12.14;100.00;101070.06;5000654;28;20434;-40
2022/09/24 05:29:26;;;;;;;;;;;;;;;12.12;100.00;101064.88;5016160;28;20391;-40
2022/09/24 05:31:52;;;;;;;;;;;;;;;12.11;100.00;101073.06;5011401;28;19997;-39
2022/09/24 05:34:17;;;;;;;;;;;;;;;12.15;100.00;101073.56;5008383;28;20064;-41
2022/09/24 05:36:42;;;;;;;;;;;;;;;12.17;100.00;101074.22;5010573;28;19940;-41
2022/09/24 05:39:08;;;;;;;;;;;;;;;12.17;100.00;101077.78;5012607;28;20453;-42
2022/09/24 05:41:33;;;;;;;;;;;;;;;12.17;100.00;101071.56;5010829;28;19929;-41
2022/09/24 05:43:59;;;;;;;;;;;;;;;12.20;100.00;101077.41;5018168;28;20027;-43
2022/09/24 05:46:24;;;;;;;;;;;;;;;12.17;100.00;101074.22;5016852;28;20352;-41
2022/09/24 05:48:49;;;;;;;;;;;;;;;12.17;100.00;101079.59;5011600;28;20383;-41
2022/09/24 05:51:15;;;;;;;;;;;;;;;12.18;100.00;101082.09;5012474;28;20019;-41
2022/09/24 05:53:40;;;;;;;;;;;;;;;12.19;100.00;101080.28;5009274;28;19921;-40
2022/09/24 05:56:05;;;;;;;;;;;;;;;12.18;100.00;101083.94;5004760;28;20011;-40
2022/09/24 05:58:31;;;;;;;;;;;;;;;12.18;100.00;101087.47;5004007;28;19921;-40
2022/09/24 06:00:57;;;;;;;;;;;;;;;12.19;100.00;101085.63;5006602;28;19928;-40
2022/09/24 06:03:22;;;;;;;;;;;;;;;12.18;100.00;101084.78;5002096;28;20411;-40
2022/09/24 06:05:48;;;;;;;;;;;;;;;12.18;100.00;101092.81;4999149;28;19913;-40
2022/09/24 06:08:15;;;;;;;;;;;;;;;12.19;100.00;101088.31;5007447;28;19958;-40
2022/09/24 06:10:41;;;;;;;;;;;;;;;12.19;100.00;101088.31;5019149;28;19913;-39
2022/09/24 06:13:06;;;;;;;;;;;;;;;12.20;100.00;101092.66;5018182;28;19924;-39
2022/09/24 06:15:31;;;;;;;;;;;;;;;12.19;100.00;101099.03;5019353;28;20384;-40
2022/09/24 06:17:56;;;;;;;;;;;;;;;12.19;100.00;101094.50;5018742;28;20260;-40
2022/09/24 06:20:22;;;;;;;;;;;;;;;12.19;100.00;101104.38;5019199;28;20384;-41
2022/09/24 06:22:47;;;;;;;;;;;;;;;12.20;100.00;101096.16;5018816;28;19952;-40
2022/09/24 06:25:12;;;;;;;;;;;;;;;12.24;100.00;101099.38;5017399;28;19948;-39
2022/09/24 06:27:37;;;;;;;;;;;;;;;12.23;100.00;101098.50;5011974;28;19936;-40
2022/09/24 06:30:03;;;;;;;;;;;;;;;12.24;100.00;101099.38;5007029;28;20007;-39
2022/09/24 06:32:29;;;;;;;;;;;;;;;12.25;100.00;101106.38;5018511;28;20087;-39
2022/09/24 06:34:54;;;;;;;;;;;;;;;12.26;100.00;101097.34;5016604;28;19921;-43
2022/09/24 06:37:19;;;;;;;;;;;;;;;12.26;100.00;101105.38;5009876;28;20276;-41
2022/09/24 06:39:44;;;;;;;;;;;;;;;12.25;100.00;101114.41;4998652;28;20273;-41
2022/09/24 06:42:10;;;;;;;;;;;;;;;12.25;100.00;101103.69;5015993;28;19954;-39
2022/09/24 06:44:35;;;;;;;;;;;;;;;12.26;100.00;101108.06;4998777;28;19967;-40
2022/09/24 06:47:01;;;;;;;;;;;;;;;12.24;100.00;101112.75;4998627;28;19920;-40
2022/09/24 06:49:26;;;;;;;;;;;;;;;12.25;100.00;101115.28;5010911;28;19963;-40
2022/09/24 06:51:55;;;;;;;;;;;;;;;12.27;100.00;101118.63;5000297;28;19929;-40
2022/09/24 06:54:21;;;;;;;;;;;;;;;12.27;100.00;101113.25;4998382;28;20250;-40
2022/09/24 06:56:46;;;;;;;;;;;;;;;12.30;100.00;101114.75;4997296;28;19913;-40
2022/09/24 06:59:12;;;;;;;;;;;;;;;12.32;100.00;101118.94;5014740;28;20001;-39
2022/09/24 07:01:37;;;;;;;;;;;;;;;12.34;100.00;101118.78;5016092;28;19913;-39
2022/09/24 07:04:02;;;;;;;;;;;;;;;12.34;100.00;101121.47;4999801;28;19932;-39
2022/09/24 07:07:28;;;;;;;;;;;;;;;12.34;100.00;101117.94;4998459;28;19913;-41
2022/09/24 07:09:12;;;;;;;;;;;;;;;12.36;100.00;101119.47;5011359;28;19971;-39
2022/09/24 07:11:38;;;;;;;;;;;;;;;12.35;100.00;101122.28;5002635;28;19925;-39
2022/09/24 07:14:03;;;;;;;;;;;;;;;12.34;100.00;101124.16;5004663;28;19922;-40
2022/09/24 07:16:29;;;;;;;;;;;;;;;12.38;100.00;101122.78;4997674;28;19913;-40
2022/09/24 07:18:54;;;;;;;;;;;;;;;12.39;100.00;101126.31;4998430;28;19917;-39
2022/09/24 07:21:19;;;;;;;;;;;;;;;12.42;100.00;101134.00;4997692;28;19921;-40
2022/09/24 07:23:44;;;;;;;;;;;;;;;12.46;100.00;101132.69;5007163;28;19936;-40
2022/09/24 07:26:09;;;;;;;;;;;;;;;12.49;100.00;101127.84;5016601;28;19920;-41
2022/09/24 07:28:35;;;;;;;;;;;;;;;12.53;100.00;101131.03;5017766;28;19913;-39
2022/09/24 07:31:00;;;;;;;;;;;;;;;12.55;100.00;101141.56;5017732;28;20418;-40
2022/09/24 07:33:25;;;;;;;;;;;;;;;12.57;100.00;101132.34;5017839;28;20015;-41
2022/09/24 07:35:51;;;;;;;;;;;;;;;12.59;100.00;101133.03;5017539;28;19913;-40
2022/09/24 07:38:16;;;;;;;;;;;;;;;12.61;100.00;101139.06;5014528;28;19921;-42
2022/09/24 07:40:43;;;;;;;;;;;;;;;12.60;100.00;101142.72;5005321;28;20465;-40
2022/09/24 07:43:11;;;;;;;;;;;;;;;12.63;100.00;101144.25;5016049;28;19948;-40
2022/09/24 07:45:36;;;;;;;;;;;;;;;12.64;100.00;101146.78;5012521;28;19987;-41
2022/09/24 07:48:03;;;;;;;;;;;;;;;12.69;100.00;101154.28;5015077;28;19921;-41
2022/09/24 07:50:30;;;;;;;;;;;;;;;12.71;100.00;101148.75;5007657;28;20410;-39
2022/09/24 07:52:55;;;;;;;;;;;;;;;12.70;100.00;101153.28;5016164;28;19917;-39
2022/09/24 07:55:21;;;;;;;;;;;;;;;12.72;100.00;101153.97;5000455;28;20020;-40
2022/09/24 07:57:50;;;;;;;;;;;;;;;12.74;100.00;101151.94;5005615;28;20008;-41
2022/09/24 08:00:16;;;;;;;;;;;;;;;12.76;100.00;101155.28;5002245;28;19922;-40
2022/09/24 08:02:43;;;;;;;;;;;;;;;12.77;100.00;101159.66;5019897;28;20039;-41
2022/09/24 08:05:08;;;;;;;;;;;;;;;12.80;100.00;101158.50;4997985;28;20038;-42
2022/09/24 08:07:33;;;;;;;;;;;;;;;12.83;100.00;101163.50;4999502;28;20308;-42
2022/09/24 08:10:00;;;;;;;;;;;;;;;12.84;100.00;101162.50;5007956;28;20120;-40
2022/09/24 08:12:26;;;;;;;;;;;;;;;12.85;100.00;101166.88;5002316;28;20052;-42
2022/09/24 08:14:51;;;;;;;;;;;;;;;12.82;100.00;101159.97;4997396;28;20280;-40
2022/09/24 08:17:17;;;;;;;;;;;;;;;12.84;100.00;101162.50;4997403;28;19914;-39
2022/09/24 08:19:45;;;;;;;;;;;;;;;12.88;100.00;101162.00;5010890;28;19917;-39
2022/09/24 08:22:10;;;;;;;;;;;;;;;12.92;100.00;101162.50;5015455;28;19925;-42
2022/09/24 08:24:35;;;;;;;;;;;;;;;12.92;100.00;101173.22;5000598;28;19972;-40
2022/09/24 08:27:01;;;;;;;;;;;;;;;12.93;100.00;101171.38;4994584;28;19960;-40
2022/09/24 08:29:26;;;;;;;;;;;;;;;12.90;100.00;101177.94;4997419;28;19913;-40
2022/09/24 08:31:51;;;;;;;;;;;;;;;12.88;100.00;101170.03;4996707;28;20234;-40
2022/09/24 08:34:16;;;;;;;;;;;;;;;12.87;100.00;101179.09;4996407;28;20078;-39
2022/09/24 08:36:42;;;;;;;;;;;;;;;12.87;100.00;101184.44;4995431;28;19918;-40
2022/09/24 08:39:07;;;;;;;;;;;;;;;12.91;100.00;101176.91;4997149;28;19932;-40
2022/09/24 08:41:54;;;;;;;;;;;;;;;12.93;100.00;101180.25;4999978;28;20004;-39
2022/09/24 08:47:37;;;;;;;;;;;;;;;12.97;100.00;101183.44;5000269;28;20011;-40
2022/09/24 08:50:10;;;;;;;;;;;;;;;12.96;100.00;101182.59;5001730;28;19967;-41
2022/09/24 08:52:44;;;;;;;;;;;;;;;12.98;100.00;101188.66;5001298;28;19917;-41
2022/09/24 08:55:21;;;;;;;;;;;;;;;12.99;100.00;101190.31;5000144;28;19991;-40
2022/09/24 08:57:56;;;;;;;;;;;;;;;13.01;100.00;101187.47;5005377;28;20372;-41
2022/09/24 09:00:22;;;;;;;;;;;;;;;13.02;100.00;101195.34;5003760;28;19925;-41
2022/09/24 09:02:50;;;;;;;;;;;;;;;13.01;100.00;101193.66;5000637;28;20234;-39
2022/09/24 09:05:36;;;;;;;;;;;;;;;13.06;100.00;101198.50;5001221;28;19918;-40
2022/09/24 09:08:08;;;;;;;;;;;;;;;13.04;100.00;101196.00;5005835;28;19917;-41
2022/09/24 09:10:36;;;;;;;;;;;;;;;13.00;100.00;101192.00;5021245;28;19913;-41
2022/09/24 09:13:12;;;;;;;;;;;;;;;13.03;100.00;101196.16;5018079;28;19921;-40
2022/09/24 09:15:41;;;;;;;;;;;;;;;13.01;100.00;101206.22;5021175;28;20419;-39
2022/09/24 09:18:14;;;;;;;;;;;;;;;13.00;100.00;101205.41;5019637;28;19918;-40
2022/09/24 09:20:41;;;;;;;;;;;;;;;13.00;100.00;101208.06;5020748;28;20370;-39
2022/09/24 09:23:20;;;;;;;;;;;;;;;13.05;100.00;101210.22;5019698;28;19947;-40
2022/09/24 09:25:50;;;;;;;;;;;;;;;13.09;100.00;101216.13;5019460;28;19936;-40
2022/09/24 09:28:16;;;;;;;;;;;;;;;13.11;100.00;101209.56;5019960;28;19928;-41
2022/09/24 09:30:47;;;;;;;;;;;;;;;13.17;100.00;101210.72;5020280;28;20418;-42
2022/09/24 09:33:23;;;;;;;;;;;;;;;13.22;100.00;101211.91;5034506;28;19918;-40
2022/09/24 09:35:48;;;;;;;;;;;;;;;13.25;100.00;101218.78;5020268;28;20303;-41
2022/09/24 09:38:22;;;;;;;;;;;;;;;13.32;100.00;101216.28;5012851;28;19944;-42
2022/09/24 09:40:52;;;;;;;;;;;;;;;13.38;100.00;101211.06;5010625;28;19921;-41
2022/09/24 09:43:18;;;;;;;;;;;;;;;13.50;100.00;101213.41;5000533;28;20012;-40
2022/09/24 09:46:02;;;;;;;;;;;;;;;13.55;100.00;101209.19;5000347;28;20345;-40
2022/09/24 09:48:35;;;;;;;;;;;;;;;13.57;100.00;101212.53;5000212;28;20169;-41
2022/09/24 09:51:04;;;;;;;;;;;;;;;13.64;100.00;101210.00;4999242;28;20442;-45
2022/09/24 09:53:30;;;;;;;;;;;;;;;13.70;100.00;101208.50;4999437;28;19921;-42
2022/09/24 09:55:58;;;;;;;;;;;;;;;13.74;100.00;101213.31;5008396;28;19922;-41
2022/09/24 09:58:29;;;;;;;;;;;;;;;13.74;100.00;101216.00;5024252;28;19955;-41
2022/09/24 10:01:03;;;;;;;;;;;;;;;13.77;100.00;101215.66;4998331;28;20177;-42
2022/09/24 10:03:48;;;;;;;;;;;;;;;13.86;100.00;101218.31;5008072;28;20388;-42
2022/09/24 10:06:33;;;;;;;;;;;;;;;13.97;100.00;101224.16;5007533;28;19928;-42
2022/09/24 10:09:06;;;;;;;;;;;;;;;14.07;100.00;101215.91;5011539;28;19939;-41
2022/09/24 10:11:31;;;;;;;;;;;;;;;14.16;100.00;101227.44;4999464;28;19940;-41
2022/09/24 10:14:04;;;;;;;;;;;;;;;14.16;100.00;101220.19;5016606;28;19917;-43
2022/09/24 10:16:34;;;;;;;;;;;;;;;14.14;100.00;101226.78;5006026;28;20566;-42
2022/09/24 10:19:00;;;;;;;;;;;;;;;14.09;100.00;101221.94;5014785;28;20455;-41
2022/09/24 10:21:33;;;;;;;;;;;;;;;14.08;100.00;101222.94;5001382;28;19989;-45
2022/09/24 10:24:00;;;;;;;;;;;;;;;14.06;100.00;101216.06;5003271;28;19913;-42
2022/09/24 10:26:38;;;;;;;;;;;;;;;14.03;100.00;101219.09;5000388;28;19921;-41
2022/09/24 10:31:48;;;;;;;;;;;;;;;14.06;100.00;101221.44;5007454;28;19945;-42
2022/09/24 10:34:27;;;;;;;;;;;;;;;14.10;100.00;101225.44;5007610;28;19917;-44
2022/09/24 10:36:56;;;;;;;;;;;;;;;14.11;100.00;101221.75;4998619;28;19929;-42
2022/09/24 10:39:22;;;;;;;;;;;;;;;14.13;100.00;101225.91;4997433;28;19913;-40
2022/09/24 10:41:48;;;;;;;;;;;;;;;14.17;100.00;101226.41;5000589;28;20065;-43
2022/09/24 10:44:15;;;;;;;;;;;;;;;14.16;100.00;101220.19;5009364;28;20393;-40
2022/09/24 10:46:52;;;;;;;;;;;;;;;14.17;100.00;101218.34;4999026;28;20007;-42
2022/09/24 10:49:36;;;;;;;;;;;;;;;14.28;100.00;101226.03;4999349;28;19917;-40
2022/09/24 10:52:13;;;;;;;;;;;;;;;14.44;100.00;101217.03;4998798;28;19949;-42
2022/09/24 10:54:38;;;;;;;;;;;;;;;14.60;100.00;101228.75;4998913;28;19951;-41
2022/09/24 10:57:24;;;;;;;;;;;;;;;14.73;100.00;101226.25;4997321;28;20418;-41
2022/09/24 10:59:55;;;;;;;;;;;;;;;14.83;100.00;101226.88;5010094;28;20440;-42
2022/09/24 11:02:39;;;;;;;;;;;;;;;14.90;100.00;101229.66;4998264;28;20008;-41
2022/09/24 11:05:10;;;;;;;;;;;;;;;14.95;100.00;101234.50;4998818;28;19921;-42
2022/09/24 11:07:51;;;;;;;;;;;;;;;15.10;100.00;101236.25;4999689;28;20304;-43
2022/09/24 11:10:16;;;;;;;;;;;;;;;15.28;100.00;101235.91;5018962;28;20173;-42
2022/09/24 11:12:44;;;;;;;;;;;;;;;15.32;100.00;101236.38;5016729;28;19970;-41
2022/09/24 11:15:28;;;;;;;;;;;;;;;15.28;100.00;101237.78;5009180;28;19927;-43
2022/09/24 11:18:05;;;;;;;;;;;;;;;15.28;100.00;101235.06;5015362;28;20466;-41
2022/09/24 11:20:38;;;;;;;;;;;;;;;15.26;100.00;101240.66;5017870;28;20303;-41
2022/09/24 11:23:09;;;;;;;;;;;;;;;15.27;100.00;101241.47;5014427;28;19918;-42
2022/09/24 11:25:50;;;;;;;;;;;;;;;15.33;100.00;101239.94;5015700;28;20029;-41
2022/09/24 11:28:24;;;;;;;;;;;;;;;15.33;100.00;101242.63;5011325;28;20265;-41
2022/09/24 11:30:49;;;;;;;;;;;;;;;15.25;100.00;101244.34;5012548;28;19909;-41
2022/09/24 11:33:33;;;;;;;;;;;;;;;15.17;100.00;101241.72;5015411;28;20377;-42
2022/09/24 11:36:07;;;;;;;;;;;;;;;15.08;100.00;101246.34;5015711;28;19964;-41
2022/09/24 11:38:56;;;;;;;;;;;;;;;15.13;100.00;101250.34;5016583;28;19913;-40
2022/09/24 11:41:21;;;;;;;;;;;;;;;15.36;100.00;101239.53;5013813;28;19921;-44
2022/09/24 11:43:49;;;;;;;;;;;;;;;15.52;100.00;101235.88;5013223;28;19920;-41
2022/09/24 11:46:35;;;;;;;;;;;;;;;15.46;100.00;101232.03;5014968;28;20004;-45
2022/09/24 11:49:19;;;;;;;;;;;;;;;15.37;100.00;101243.91;5016357;28;19921;-40
2022/09/24 11:51:54;;;;;;;;;;;;;;;15.23;100.00;101238.31;5015307;28;20457;-41
2022/09/24 11:54:22;;;;;;;;;;;;;;;15.11;100.00;101243.28;5016225;28;19924;-43
2022/09/24 11:56:49;;;;;;;;;;;;;;;15.06;100.00;101236.78;5014972;28;19913;-42
2022/09/24 11:59:33;;;;;;;;;;;;;;;14.98;100.00;101244.91;5013814;28;19956;-40
2022/09/24 12:02:18;;;;;;;;;;;;;;;14.95;100.00;101239.91;5012798;28;20076;-41
2022/09/24 12:05:05;;;;;;;;;;;;;;;15.04;100.00;101238.84;5013401;28;19947;-42
2022/09/24 12:07:52;;;;;;;;;;;;;;;15.06;100.00;101239.47;5014764;28;19979;-43
2022/09/24 12:10:23;;;;;;;;;;;;;;;15.05;100.00;101238.66;5015846;28;19912;-41
2022/09/24 12:12:50;;;;;;;;;;;;;;;15.06;100.00;101239.47;5012502;28;20348;-43
2022/09/24 12:15:21;;;;;;;;;;;;;;;15.00;100.00;101232.94;5019186;28;19960;-42
2022/09/24 12:17:58;;;;;;;;;;;;;;;15.00;100.00;101234.81;5017408;28;20146;-40
2022/09/24 12:20:27;;;;;;;;;;;;;;;14.98;100.00;101231.47;5007486;28;19941;-43
2022/09/24 12:23:06;;;;;;;;;;;;;;;15.00;100.00;101240.19;5017632;28;20007;-42
2022/09/24 12:25:38;;;;;;;;;;;;;;;15.02;100.00;101240.84;5002398;28;19949;-41
2022/09/24 12:28:03;;;;;;;;;;;;;;;14.99;100.00;101241.22;5000357;28;19983;-42
2022/09/24 12:33:26;;;;;;;;;;;;;;;14.92;100.00;101241.94;5001489;28;20040;-41
2022/09/24 12:36:03;;;;;;;;;;;;;;;14.92;100.00;101247.31;5003827;28;19970;-41
2022/09/24 12:38:31;;;;;;;;;;;;;;;14.91;100.00;101234.88;5000692;28;19914;-42
2022/09/24 12:40:59;;;;;;;;;;;;;;;14.97;100.00;101246.78;5001290;28;19913;-41
2022/09/24 12:43:25;;;;;;;;;;;;;;;14.99;100.00;101246.59;5009690;28;19932;-42
2022/09/24 12:45:59;;;;;;;;;;;;;;;15.00;100.00;101250.94;5006467;28;20205;-41
2022/09/24 12:48:25;;;;;;;;;;;;;;;14.99;100.00;101246.59;5005142;28;19918;-41
2022/09/24 12:50:58;;;;;;;;;;;;;;;14.96;100.00;101239.72;5015123;28;19939;-44
2022/09/24 12:53:32;;;;;;;;;;;;;;;14.97;100.00;101244.09;5007674;28;19931;-40
2022/09/24 12:55:58;;;;;;;;;;;;;;;15.00;100.00;101248.25;5015138;28;20316;-40
2022/09/24 12:58:35;;;;;;;;;;;;;;;15.02;100.00;101236.31;5018390;28;19921;-43